createdAt,value
2023-07-04T00:01:09.743Z,37.75
2023-07-04T00:03:37.884Z,37.25
2023-07-04T00:06:06.996Z,36.50
2023-07-04T00:08:34.568Z,37.00
2023-07-04T00:11:03.520Z,38.00
2023-07-04T00:13:32.489Z,38.50
2023-07-04T00:16:00.482Z,38.75
2023-07-04T00:18:29.387Z,37.50
2023-07-04T00:20:59.381Z,37.00
2023-07-04T00:23:31.288Z,36.50
2023-07-04T00:25:58.991Z,38.50
2023-07-04T00:28:26.308Z,36.00
2023-07-04T00:30:55.362Z,36.00
2023-07-04T00:33:27.607Z,37.00
2023-07-04T00:36:05.126Z,35.50
2023-07-04T00:38:33.620Z,36.50
2023-07-04T00:41:06.890Z,36.50
2023-07-04T00:44:02.979Z,37.00
2023-07-04T00:46:47.387Z,37.00
2023-07-04T00:49:20.664Z,36.50
2023-07-04T00:52:05.104Z,37.00
2023-07-04T00:54:37.091Z,37.00
2023-07-04T00:57:05.088Z,39.00
2023-07-04T00:59:39.683Z,36.50
2023-07-04T01:02:07.168Z,36.00
2023-07-04T01:04:34.308Z,36.50
2023-07-04T01:07:10.638Z,36.50
2023-07-04T01:09:41.108Z,36.00
2023-07-04T01:12:08.850Z,36.50
2023-07-04T01:14:35.767Z,36.50
2023-07-04T01:17:02.620Z,35.50
2023-07-04T01:19:33.543Z,36.50
2023-07-04T01:22:35.066Z,37.50
2023-07-04T01:25:12.071Z,37.50
2023-07-04T01:27:41.876Z,37.00
2023-07-04T01:30:14.028Z,37.00
2023-07-04T01:32:43.459Z,37.00
2023-07-04T01:35:15.138Z,35.50
2023-07-04T01:37:42.441Z,36.50
2023-07-04T01:40:09.994Z,37.00
2023-07-04T01:42:37.436Z,36.50
2023-07-04T01:45:07.167Z,35.50
2023-07-04T01:47:36.219Z,36.00
2023-07-04T01:50:05.443Z,36.50
2023-07-04T01:52:32.676Z,37.25
2023-07-04T01:54:59.779Z,39.25
2023-07-04T01:57:27.315Z,40.00
2023-07-04T01:59:54.396Z,38.50
2023-07-04T02:02:22.401Z,37.50
2023-07-04T02:04:49.344Z,37.75
2023-07-04T02:07:16.591Z,37.50
2023-07-04T02:09:44.541Z,36.00
2023-07-04T02:12:11.652Z,36.50
2023-07-04T02:14:38.640Z,37.00
2023-07-04T02:17:06.110Z,36.50
2023-07-04T02:19:33.017Z,37.00
2023-07-04T02:21:59.994Z,35.50
2023-07-04T02:24:27.141Z,36.50
2023-07-04T02:26:54.526Z,36.50
2023-07-04T02:29:21.537Z,36.50
2023-07-04T02:31:48.663Z,37.00
2023-07-04T02:34:15.678Z,37.00
2023-07-04T02:36:43.386Z,37.00
2023-07-04T02:39:10.451Z,36.75
2023-07-04T02:41:37.576Z,39.50
2023-07-04T02:44:05.363Z,38.00
2023-07-04T02:46:32.936Z,37.00
2023-07-04T02:49:03.745Z,38.00
2023-07-04T02:51:30.697Z,38.00
2023-07-04T02:53:58.407Z,39.00
2023-07-04T02:56:26.063Z,39.00
2023-07-04T02:58:53.348Z,38.00
2023-07-04T03:01:20.911Z,38.00
2023-07-04T03:03:48.585Z,37.00
2023-07-04T03:06:16.121Z,37.50
2023-07-04T03:08:43.240Z,37.50
2023-07-04T03:11:10.239Z,37.50
2023-07-04T03:13:37.286Z,37.00
2023-07-04T03:16:05.510Z,38.00
2023-07-04T03:18:34.714Z,37.50
2023-07-04T03:21:02.529Z,38.00
2023-07-04T03:23:29.489Z,37.50
2023-07-04T03:25:56.828Z,37.00
2023-07-04T03:28:23.974Z,39.00
2023-07-04T03:30:51.431Z,39.00
2023-07-04T03:33:18.681Z,39.50
2023-07-04T03:35:58.059Z,39.00
2023-07-04T03:38:28.093Z,38.50
2023-07-04T03:40:55.564Z,41.50
2023-07-04T03:43:24.241Z,40.25
2023-07-04T03:45:51.241Z,39.50
2023-07-04T03:48:18.493Z,38.50
2023-07-04T03:50:46.012Z,39.00
2023-07-04T03:53:13.102Z,38.50
2023-07-04T03:55:41.015Z,39.00
2023-07-04T03:58:07.994Z,40.00
2023-07-04T04:00:35.026Z,41.00
2023-07-04T04:03:02.380Z,40.00
2023-07-04T04:05:30.159Z,41.00
2023-07-04T04:07:57.255Z,41.00
2023-07-04T04:10:24.449Z,42.50
2023-07-04T04:12:51.595Z,43.00
2023-07-04T04:15:18.633Z,43.00
2023-07-04T04:17:45.689Z,42.00
2023-07-04T04:20:13.795Z,42.75
2023-07-04T04:22:41.829Z,42.00
2023-07-04T04:25:09.315Z,42.50
2023-07-04T04:27:36.230Z,43.00
2023-07-04T04:30:04.682Z,43.00
2023-07-04T04:32:31.993Z,43.00
2023-07-04T04:34:58.917Z,43.75
2023-07-04T04:37:25.898Z,43.25
2023-07-04T04:39:52.846Z,44.00
2023-07-04T04:42:19.922Z,44.00
2023-07-04T04:44:46.824Z,44.00
2023-07-04T04:47:13.746Z,43.00
2023-07-04T04:49:40.598Z,44.00
2023-07-04T04:52:07.805Z,43.00
2023-07-04T04:54:34.785Z,43.00
2023-07-04T04:57:01.702Z,43.00
2023-07-04T04:59:28.570Z,43.00
2023-07-04T05:01:55.662Z,43.00
2023-07-04T05:04:35.612Z,42.00
2023-07-04T05:07:05.856Z,42.00
2023-07-04T05:09:33.458Z,43.00
2023-07-04T05:12:01.600Z,42.75
2023-07-04T05:14:29.413Z,41.00
2023-07-04T05:16:56.397Z,41.50
2023-07-04T05:19:23.341Z,42.00
2023-07-04T05:21:50.349Z,42.00
2023-07-04T05:24:17.266Z,41.00
2023-07-04T05:26:44.335Z,41.00
2023-07-04T05:29:11.264Z,41.00
2023-07-04T05:31:38.281Z,40.25
2023-07-04T05:34:06.222Z,41.00
2023-07-04T05:36:33.921Z,41.00
2023-07-04T05:39:03.556Z,40.00
2023-07-04T05:41:32.850Z,40.50
2023-07-04T05:44:02.618Z,41.00
2023-07-04T05:46:30.079Z,40.00
2023-07-04T05:48:58.374Z,40.00
2023-07-04T05:51:26.391Z,40.50
2023-07-04T05:53:54.610Z,40.00
2023-07-04T05:56:31.759Z,40.25
2023-07-04T05:59:03.138Z,41.00
2023-07-04T06:01:39.069Z,39.50
2023-07-04T06:04:08.468Z,39.00
2023-07-04T06:06:42.033Z,39.00
2023-07-04T06:09:12.005Z,41.00
2023-07-04T06:11:41.317Z,40.00
2023-07-04T06:14:08.326Z,40.00
2023-07-04T06:16:35.718Z,40.00
2023-07-04T06:19:03.356Z,40.75
2023-07-04T06:21:42.329Z,40.00
2023-07-04T06:24:11.431Z,39.00
2023-07-04T06:26:38.711Z,41.00
2023-07-04T06:29:06.007Z,40.75
2023-07-04T06:31:33.145Z,41.00
2023-07-04T06:34:00.546Z,40.00
2023-07-04T06:36:27.536Z,40.00
2023-07-04T06:38:54.654Z,40.00
2023-07-04T06:41:23.416Z,40.00
2023-07-04T06:43:50.455Z,39.00
2023-07-04T06:46:19.832Z,39.00
2023-07-04T06:48:48.102Z,39.00
2023-07-04T06:51:16.809Z,43.50
2023-07-04T06:53:44.605Z,42.50
2023-07-04T06:56:17.696Z,41.00
2023-07-04T06:58:48.540Z,40.00
2023-07-04T07:01:16.005Z,41.00
2023-07-04T07:03:43.015Z,41.00
2023-07-04T07:06:12.471Z,40.00
2023-07-04T07:08:40.086Z,39.50
2023-07-04T07:11:13.354Z,41.50
2023-07-04T07:13:41.830Z,42.00
2023-07-04T07:16:15.265Z,40.00
2023-07-04T07:18:44.399Z,40.00
2023-07-04T07:21:13.514Z,40.00
2023-07-04T07:23:41.571Z,39.00
2023-07-04T07:26:11.615Z,39.50
2023-07-04T07:28:40.271Z,39.00
2023-07-04T07:31:11.840Z,39.25
2023-07-04T07:33:40.964Z,40.00
2023-07-04T07:36:29.984Z,41.00
2023-07-04T07:38:57.107Z,41.00
2023-07-04T07:41:30.149Z,40.00
2023-07-04T07:43:57.179Z,40.25
2023-07-04T07:46:24.748Z,44.00
2023-07-04T07:48:52.213Z,42.00
2023-07-04T07:51:20.261Z,40.00
2023-07-04T07:53:49.138Z,38.50
2023-07-04T07:56:18.924Z,40.75
2023-07-04T07:58:45.925Z,40.50
2023-07-04T08:01:14.796Z,40.00
2023-07-04T08:03:42.954Z,40.00
2023-07-04T08:06:20.417Z,39.00
2023-07-04T08:08:47.459Z,39.00
2023-07-04T08:11:15.428Z,38.00
2023-07-04T08:13:43.824Z,38.00
2023-07-04T08:16:11.403Z,38.00
2023-07-04T08:18:39.382Z,38.25
2023-07-04T08:21:06.271Z,39.00
2023-07-04T08:23:33.237Z,38.50
2023-07-04T08:26:00.141Z,37.50
2023-07-04T08:28:27.214Z,38.00
2023-07-04T08:30:54.534Z,38.50
2023-07-04T08:33:21.767Z,38.50
2023-07-04T08:35:59.121Z,38.50
2023-07-04T08:38:26.750Z,39.00
2023-07-04T08:40:54.758Z,39.50
2023-07-04T08:43:43.315Z,38.00
2023-07-04T08:46:13.820Z,39.50
2023-07-04T08:48:42.821Z,39.50
2023-07-04T08:51:17.268Z,39.50
2023-07-04T08:53:50.222Z,40.50
2023-07-04T08:56:30.790Z,40.00
2023-07-04T08:59:06.824Z,40.00
2023-07-04T09:01:40.348Z,38.50
2023-07-04T09:04:24.937Z,38.00
2023-07-04T09:07:15.479Z,39.50
2023-07-04T09:10:10.065Z,39.00
2023-07-04T09:12:40.764Z,40.00
2023-07-04T09:15:30.966Z,39.00
2023-07-04T09:18:21.749Z,39.00
2023-07-04T09:21:00.714Z,40.00
2023-07-04T09:23:27.834Z,40.00
2023-07-04T09:25:57.918Z,39.00
2023-07-04T09:28:26.706Z,39.00
2023-07-04T09:30:56.735Z,40.00
2023-07-04T09:33:24.920Z,40.00
2023-07-04T09:35:51.895Z,41.00
2023-07-04T09:38:18.917Z,40.00
2023-07-04T09:40:50.041Z,39.75
2023-07-04T09:43:28.641Z,41.00
2023-07-04T09:46:18.978Z,40.00
2023-07-04T09:48:47.948Z,39.25
2023-07-04T09:51:32.229Z,40.00
2023-07-04T09:54:18.293Z,40.50
2023-07-04T09:56:45.333Z,40.00
2023-07-04T09:59:16.868Z,39.00
2023-07-04T10:01:50.199Z,38.50
2023-07-04T10:04:36.096Z,38.50
2023-07-04T10:07:11.965Z,39.00
2023-07-04T10:09:51.384Z,39.00
2023-07-04T10:12:18.517Z,39.00
2023-07-04T10:14:57.274Z,43.50
2023-07-04T10:17:33.124Z,42.25
2023-07-04T10:20:14.374Z,40.00
2023-07-04T10:22:50.006Z,39.50
2023-07-04T10:25:20.816Z,38.00
2023-07-04T10:27:51.770Z,38.50
2023-07-04T10:30:25.990Z,39.00
2023-07-04T10:32:57.530Z,39.00
2023-07-04T10:35:32.269Z,39.00
2023-07-04T10:38:04.609Z,39.00
2023-07-04T10:40:36.994Z,38.00
2023-07-04T10:43:11.032Z,38.00
2023-07-04T10:45:52.227Z,39.00
2023-07-04T10:48:33.092Z,39.00
2023-07-04T10:51:09.799Z,38.50
2023-07-04T10:53:37.373Z,39.00
2023-07-04T10:56:13.489Z,38.00
2023-07-04T10:58:44.731Z,37.00
2023-07-04T11:01:19.332Z,38.00
2023-07-04T11:04:00.316Z,38.75
2023-07-04T11:06:42.176Z,39.00
2023-07-04T11:09:18.381Z,39.75
2023-07-04T11:11:49.160Z,40.00
2023-07-04T11:14:30.900Z,40.00
2023-07-04T11:17:03.400Z,40.00
2023-07-04T11:19:32.931Z,39.00
2023-07-04T11:22:03.186Z,39.00
2023-07-04T11:24:36.429Z,40.00
2023-07-04T11:27:05.233Z,41.00
2023-07-04T11:29:53.064Z,40.00
2023-07-04T11:32:24.767Z,40.00
2023-07-04T11:35:02.798Z,39.00
2023-07-04T11:37:29.737Z,39.00
2023-07-04T11:39:59.112Z,39.00
2023-07-04T11:42:41.494Z,40.00
2023-07-04T11:45:20.581Z,39.00
2023-07-04T11:47:55.815Z,38.50
2023-07-04T11:50:42.221Z,38.50
2023-07-04T11:53:20.901Z,39.00
2023-07-04T11:56:31.960Z,40.00
2023-07-04T11:59:15.580Z,40.50
2023-07-04T12:01:58.521Z,40.00
2023-07-04T12:04:51.258Z,40.00
2023-07-04T12:07:27.649Z,39.00
2023-07-04T12:10:14.188Z,39.00
2023-07-04T12:12:42.925Z,39.50
2023-07-04T12:15:25.392Z,39.75
2023-07-04T12:17:53.065Z,40.00
2023-07-04T12:20:21.099Z,40.00
2023-07-04T12:22:59.468Z,39.00
2023-07-04T12:25:29.621Z,39.25
2023-07-04T12:27:57.661Z,39.00
2023-07-04T12:30:24.743Z,40.00
2023-07-04T12:33:01.037Z,39.00
2023-07-04T12:35:32.929Z,39.00
2023-07-04T12:38:00.963Z,41.50
2023-07-04T12:40:30.291Z,41.00
2023-07-04T12:44:37.421Z,40.00
2023-07-04T12:50:52.277Z,39.00
2023-07-04T12:53:20.609Z,39.00
2023-07-04T12:55:48.053Z,40.00
2023-07-04T12:58:16.013Z,39.50
2023-07-04T13:00:57.962Z,39.25
2023-07-04T13:03:25.399Z,38.50
2023-07-04T13:05:55.919Z,40.00
2023-07-04T13:08:28.507Z,39.00
2023-07-04T13:10:59.799Z,38.50
2023-07-04T13:13:37.044Z,38.00
2023-07-04T13:16:36.608Z,37.00
2023-07-04T13:19:06.438Z,39.00
2023-07-04T13:21:39.120Z,39.00
2023-07-04T13:26:43.222Z,39.00
2023-07-04T13:34:19.505Z,38.00
2023-07-04T13:36:49.524Z,38.00
2023-07-04T13:41:52.058Z,39.00
2023-07-04T13:46:52.475Z,39.00
2023-07-04T13:49:20.188Z,40.00
2023-07-04T13:51:47.113Z,39.00
2023-07-04T13:54:14.461Z,39.00
2023-07-04T13:56:41.790Z,39.00
2023-07-04T13:59:08.661Z,38.75
2023-07-04T14:06:38.097Z,38.00
2023-07-04T14:09:09.624Z,38.00
2023-07-04T14:11:42.795Z,36.25
2023-07-04T14:16:17.375Z,37.50
2023-07-04T14:17:28.047Z,36.75
2023-07-04T14:22:14.182Z,38.50
2023-07-04T14:24:41.397Z,39.00
2023-07-04T14:27:08.415Z,38.00
2023-07-04T14:29:35.388Z,37.50
2023-07-04T14:32:02.500Z,37.50
2023-07-04T14:34:29.499Z,38.50
2023-07-04T14:36:56.415Z,39.00
2023-07-04T14:39:23.454Z,38.00
2023-07-04T14:44:20.058Z,38.50
2023-07-04T14:46:46.949Z,38.50
2023-07-04T14:49:13.960Z,38.00
2023-07-04T14:51:40.921Z,38.00
2023-07-04T14:54:07.887Z,37.00
2023-07-04T14:56:45.923Z,39.50
2023-07-04T14:59:18.238Z,39.00
2023-07-04T15:01:45.256Z,39.00
2023-07-04T15:04:12.282Z,39.00
2023-07-04T15:06:39.265Z,38.00
2023-07-04T15:09:06.516Z,39.00
2023-07-04T15:11:33.880Z,38.50
2023-07-04T15:14:01.125Z,37.00
2023-07-04T15:16:28.164Z,38.00
2023-07-04T15:18:55.207Z,38.00
2023-07-04T15:21:22.750Z,37.00
2023-07-04T15:23:49.840Z,38.00
2023-07-04T15:26:26.283Z,38.00
2023-07-04T15:28:57.016Z,37.25
2023-07-04T15:31:25.366Z,38.00
2023-07-04T15:33:53.420Z,38.00
2023-07-04T15:36:20.793Z,37.50
2023-07-04T15:38:47.887Z,37.00
2023-07-04T15:41:14.980Z,37.50
2023-07-04T15:43:41.976Z,37.75
2023-07-04T15:46:11.937Z,37.00
2023-07-04T15:48:40.314Z,36.50
2023-07-04T15:51:15.582Z,37.00
2023-07-04T15:53:42.796Z,37.00
2023-07-04T15:56:21.733Z,36.50
2023-07-04T15:58:48.763Z,37.00
2023-07-04T16:01:15.753Z,37.00
2023-07-04T16:03:43.142Z,37.00
2023-07-04T16:06:10.736Z,37.00
2023-07-04T16:08:39.564Z,36.00
2023-07-04T16:11:10.020Z,37.00
2023-07-04T16:13:37.134Z,35.50
2023-07-04T16:16:04.411Z,37.25
2023-07-04T16:18:31.528Z,36.50
2023-07-04T16:20:59.082Z,36.50
2023-07-04T16:23:26.420Z,37.00
2023-07-04T16:25:53.939Z,37.75
2023-07-04T16:28:21.123Z,40.25
2023-07-04T16:30:49.199Z,61.00
2023-07-04T16:33:16.981Z,68.00
2023-07-04T16:35:44.702Z,60.25
2023-07-04T16:38:11.853Z,41.75
2023-07-04T16:40:39.089Z,41.50
2023-07-04T16:43:06.842Z,41.00
2023-07-04T16:45:33.890Z,42.00
2023-07-04T16:48:04.864Z,44.00
2023-07-04T16:50:34.385Z,39.50
2023-07-04T16:53:04.053Z,37.00
2023-07-04T16:55:33.841Z,39.00
2023-07-04T16:58:00.871Z,39.00
2023-07-04T17:00:27.956Z,39.00
2023-07-04T17:02:55.519Z,38.00
2023-07-04T17:05:22.919Z,36.50
2023-07-04T17:07:50.474Z,36.00
2023-07-04T17:10:18.174Z,38.00
2023-07-04T17:12:45.919Z,38.50
2023-07-04T17:15:13.205Z,38.00
2023-07-04T17:17:40.315Z,38.75
2023-07-04T17:20:07.941Z,39.00
2023-07-04T17:22:35.150Z,37.50
2023-07-04T17:25:12.111Z,37.00
2023-07-04T17:27:40.878Z,36.50
2023-07-04T17:30:10.248Z,38.75
2023-07-04T17:32:37.715Z,38.00
2023-07-04T17:35:06.163Z,37.50
2023-07-04T17:37:34.869Z,38.00
2023-07-04T17:40:01.892Z,38.00
2023-07-04T17:42:29.618Z,37.00
2023-07-04T17:45:00.269Z,37.50
2023-07-04T17:47:30.789Z,37.00
2023-07-04T17:49:58.341Z,37.50
2023-07-04T17:52:28.789Z,37.50
2023-07-04T17:54:57.905Z,37.00
2023-07-04T17:57:28.295Z,37.00
2023-07-04T17:59:56.278Z,37.50
2023-07-04T18:02:23.842Z,37.50
2023-07-04T18:04:55.495Z,38.50
2023-07-04T18:07:24.199Z,38.00
2023-07-04T18:09:52.626Z,38.00
2023-07-04T18:12:24.896Z,37.00
2023-07-04T18:14:53.919Z,35.50
2023-07-04T18:17:21.106Z,37.00
2023-07-04T18:19:51.692Z,36.00
2023-07-04T18:22:18.623Z,36.50
2023-07-04T18:24:45.621Z,36.50
2023-07-04T18:27:12.696Z,36.75
2023-07-04T18:29:39.671Z,37.50
2023-07-04T18:32:07.018Z,37.00
2023-07-04T18:34:34.461Z,37.25
2023-07-04T18:37:01.570Z,38.00
2023-07-04T18:39:28.632Z,37.00
2023-07-04T18:41:55.638Z,37.00
2023-07-04T18:44:22.785Z,36.50
2023-07-04T18:46:49.785Z,36.50
2023-07-04T18:49:16.845Z,37.00
2023-07-04T18:51:44.181Z,36.50
2023-07-04T18:54:16.309Z,36.00
2023-07-04T18:56:45.430Z,36.50
2023-07-04T18:59:13.731Z,36.00
2023-07-04T19:01:41.145Z,37.50
2023-07-04T19:04:08.225Z,38.00
2023-07-04T19:06:36.835Z,39.25
2023-07-04T19:09:05.166Z,36.50
2023-07-04T19:11:38.290Z,38.00
2023-07-04T19:14:12.535Z,37.50
2023-07-04T19:16:43.883Z,37.00
2023-07-04T19:19:11.032Z,36.00
2023-07-04T19:21:38.920Z,39.00
2023-07-04T19:24:06.244Z,37.00
2023-07-04T19:26:35.572Z,36.00
2023-07-04T19:29:04.244Z,38.50
2023-07-04T19:31:31.344Z,36.00
2023-07-04T19:33:58.473Z,39.00
2023-07-04T19:36:25.972Z,38.00
2023-07-04T19:38:53.102Z,37.00
2023-07-04T19:41:22.561Z,39.25
2023-07-04T19:43:49.620Z,39.00
2023-07-04T19:46:17.045Z,40.00
2023-07-04T19:48:44.270Z,40.00
2023-07-04T19:51:17.771Z,39.00
2023-07-04T19:53:45.932Z,39.50
2023-07-04T19:56:16.107Z,41.00
2023-07-04T19:58:44.199Z,39.75
2023-07-04T20:01:14.339Z,39.00
2023-07-04T20:03:42.478Z,39.50
2023-07-04T20:06:15.341Z,39.00
2023-07-04T20:08:43.825Z,37.00
2023-07-04T20:11:11.745Z,37.50
2023-07-04T20:13:39.605Z,38.50
2023-07-04T20:16:11.678Z,39.00
2023-07-04T20:18:39.022Z,37.00
2023-07-04T20:21:06.387Z,36.50
2023-07-04T20:23:34.186Z,37.50
2023-07-04T20:26:02.522Z,38.50
2023-07-04T20:28:30.528Z,39.50
2023-07-04T20:31:01.151Z,40.00
2023-07-04T20:33:31.104Z,39.00
2023-07-04T20:35:58.435Z,38.50
2023-07-04T20:38:25.676Z,38.00
2023-07-04T20:40:53.277Z,38.00
2023-07-04T20:43:21.763Z,36.25
2023-07-04T20:45:53.024Z,39.00
2023-07-04T20:48:20.445Z,38.00
2023-07-04T20:50:49.324Z,39.00
2023-07-04T20:53:18.013Z,38.00
2023-07-04T20:55:48.651Z,37.50
2023-07-04T20:58:15.711Z,36.00
2023-07-04T21:00:42.580Z,36.50
2023-07-04T21:03:10.330Z,37.00
2023-07-04T21:05:37.346Z,39.50
2023-07-04T21:08:05.586Z,37.50
2023-07-04T21:10:36.394Z,38.50
2023-07-04T21:13:05.629Z,38.00
2023-07-04T21:15:36.528Z,37.75
2023-07-04T21:18:04.107Z,39.00
2023-07-04T21:20:31.046Z,38.25
2023-07-04T21:22:58.093Z,37.50
2023-07-04T21:25:25.082Z,48.75
2023-07-04T21:27:52.723Z,65.25
2023-07-04T21:30:19.824Z,57.00
2023-07-04T21:32:46.832Z,53.50
2023-07-04T21:35:13.897Z,49.00
2023-07-04T21:37:40.951Z,40.50
2023-07-04T21:40:08.638Z,38.00
2023-07-04T21:42:35.617Z,40.00
2023-07-04T21:45:02.559Z,38.50
2023-07-04T21:47:31.876Z,49.50
2023-07-04T21:49:59.124Z,46.25
2023-07-04T21:52:26.116Z,41.00
2023-07-04T21:54:53.077Z,39.50
2023-07-04T21:57:20.046Z,38.75
2023-07-04T21:59:47.061Z,39.75
2023-07-04T22:02:14.161Z,39.25
2023-07-04T22:04:41.117Z,37.00
2023-07-04T22:07:08.124Z,38.00
2023-07-04T22:09:35.046Z,37.00
2023-07-04T22:12:02.003Z,35.50
2023-07-04T22:14:37.826Z,37.00
2023-07-04T22:17:07.197Z,36.50
2023-07-04T22:19:34.281Z,36.50
2023-07-04T22:22:01.442Z,35.00
2023-07-04T22:24:28.937Z,37.00
2023-07-04T22:26:56.247Z,35.00
2023-07-04T22:29:23.234Z,36.50
2023-07-04T22:31:50.219Z,39.00
2023-07-04T22:34:17.283Z,38.25
2023-07-04T22:36:44.260Z,37.50
2023-07-04T22:39:11.145Z,38.50
2023-07-04T22:41:38.288Z,36.00
2023-07-04T22:44:05.393Z,37.00
2023-07-04T22:46:32.974Z,35.50
2023-07-04T22:49:00.362Z,36.50
2023-07-04T22:51:27.421Z,37.00
2023-07-04T22:53:54.461Z,37.00
2023-07-04T22:56:22.066Z,36.50
2023-07-04T22:58:49.019Z,37.25
2023-07-04T23:01:19.714Z,38.50
2023-07-04T23:03:47.040Z,35.00
2023-07-04T23:06:15.129Z,36.50
2023-07-04T23:08:43.362Z,35.00
2023-07-04T23:11:11.382Z,37.50
2023-07-04T23:13:38.390Z,36.00
2023-07-04T23:16:10.956Z,36.00
2023-07-04T23:18:39.003Z,38.00
2023-07-04T23:21:06.613Z,38.00
2023-07-04T23:23:33.822Z,37.50
2023-07-04T23:26:08.762Z,37.50
2023-07-04T23:28:35.818Z,37.00
2023-07-04T23:31:07.319Z,36.50
2023-07-04T23:33:34.468Z,37.50
2023-07-04T23:36:01.686Z,36.25
2023-07-04T23:38:29.564Z,37.25
2023-07-04T23:40:57.092Z,38.00
2023-07-04T23:43:24.615Z,37.50
2023-07-04T23:45:52.833Z,38.00
2023-07-04T23:48:20.165Z,36.50
2023-07-04T23:50:48.443Z,34.50
2023-07-04T23:53:16.405Z,37.00
2023-07-04T23:55:43.523Z,36.00
2023-07-04T23:58:10.721Z,37.50
